sensor_id;sensor_type;location;lat;lon;timestamp;temperature;humidity
67586;SHT31;55785;47.946;20.540;2022-12-07T00:01:28;3.08;83.37
67586;SHT31;55785;47.946;20.540;2022-12-07T00:03:56;3.22;83.05
67586;SHT31;55785;47.946;20.540;2022-12-07T00:06:22;3.23;82.68
67586;SHT31;55785;47.946;20.540;2022-12-07T00:08:48;3.30;82.62
67586;SHT31;55785;47.946;20.540;2022-12-07T00:11:18;3.30;82.58
67586;SHT31;55785;47.946;20.540;2022-12-07T00:13:44;3.38;82.36
67586;SHT31;55785;47.946;20.540;2022-12-07T00:16:12;3.38;82.54
67586;SHT31;55785;47.946;20.540;2022-12-07T00:18:38;3.25;82.68
67586;SHT31;55785;47.946;20.540;2022-12-07T00:21:06;3.26;82.86
67586;SHT31;55785;47.946;20.540;2022-12-07T00:23:32;3.23;82.89
67586;SHT31;55785;47.946;20.540;2022-12-07T00:26:09;3.32;82.77
67586;SHT31;55785;47.946;20.540;2022-12-07T00:28:34;3.33;82.65
67586;SHT31;55785;47.946;20.540;2022-12-07T00:31:08;3.33;82.75
67586;SHT31;55785;47.946;20.540;2022-12-07T00:33:34;3.23;82.86
67586;SHT31;55785;47.946;20.540;2022-12-07T00:36:01;3.30;82.87
67586;SHT31;55785;47.946;20.540;2022-12-07T00:38:31;3.25;82.95
67586;SHT31;55785;47.946;20.540;2022-12-07T00:41:02;3.22;83.03
67586;SHT31;55785;47.946;20.540;2022-12-07T00:43:28;3.11;83.11
67586;SHT31;55785;47.946;20.540;2022-12-07T00:45:54;3.09;83.24
67586;SHT31;55785;47.946;20.540;2022-12-07T00:48:20;3.09;83.32
67586;SHT31;55785;47.946;20.540;2022-12-07T00:50:46;3.09;83.34
67586;SHT31;55785;47.946;20.540;2022-12-07T00:53:11;3.15;83.26
67586;SHT31;55785;47.946;20.540;2022-12-07T00:55:37;3.16;83.13
67586;SHT31;55785;47.946;20.540;2022-12-07T00:58:03;3.13;83.11
67586;SHT31;55785;47.946;20.540;2022-12-07T01:00:29;3.16;83.18
67586;SHT31;55785;47.946;20.540;2022-12-07T01:02:55;3.16;83.12
67586;SHT31;55785;47.946;20.540;2022-12-07T01:05:20;3.19;83.17
67586;SHT31;55785;47.946;20.540;2022-12-07T01:07:45;3.20;82.99
67586;SHT31;55785;47.946;20.540;2022-12-07T01:10:11;3.19;82.90
67586;SHT31;55785;47.946;20.540;2022-12-07T01:12:36;3.15;83.08
67586;SHT31;55785;47.946;20.540;2022-12-07T01:15:01;3.15;83.14
67586;SHT31;55785;47.946;20.540;2022-12-07T01:17:27;3.16;83.17
67586;SHT31;55785;47.946;20.540;2022-12-07T01:19:53;3.25;82.89
67586;SHT31;55785;47.946;20.540;2022-12-07T01:22:18;3.18;82.90
67586;SHT31;55785;47.946;20.540;2022-12-07T01:24:43;3.07;83.12
67586;SHT31;55785;47.946;20.540;2022-12-07T01:27:09;3.13;83.00
67586;SHT31;55785;47.946;20.540;2022-12-07T01:29:34;3.07;83.01
67586;SHT31;55785;47.946;20.540;2022-12-07T01:31:59;2.97;83.13
67586;SHT31;55785;47.946;20.540;2022-12-07T01:34:25;3.01;83.19
67586;SHT31;55785;47.946;20.540;2022-12-07T01:36:50;2.84;83.33
67586;SHT31;55785;47.946;20.540;2022-12-07T01:39:15;2.74;83.46
67586;SHT31;55785;47.946;20.540;2022-12-07T01:41:41;2.81;83.43
67586;SHT31;55785;47.946;20.540;2022-12-07T01:44:14;2.73;83.41
67586;SHT31;55785;47.946;20.540;2022-12-07T01:46:40;2.54;83.68
67586;SHT31;55785;47.946;20.540;2022-12-07T01:49:09;2.56;84.15
67586;SHT31;55785;47.946;20.540;2022-12-07T01:51:37;2.78;83.79
67586;SHT31;55785;47.946;20.540;2022-12-07T01:54:04;2.92;83.23
67586;SHT31;55785;47.946;20.540;2022-12-07T01:56:30;2.98;83.14
67586;SHT31;55785;47.946;20.540;2022-12-07T01:58:58;3.07;82.87
67586;SHT31;55785;47.946;20.540;2022-12-07T02:01:24;3.05;82.76
67586;SHT31;55785;47.946;20.540;2022-12-07T02:03:50;3.16;82.47
67586;SHT31;55785;47.946;20.540;2022-12-07T02:06:19;3.20;82.37
67586;SHT31;55785;47.946;20.540;2022-12-07T02:08:46;3.32;81.92
67586;SHT31;55785;47.946;20.540;2022-12-07T02:11:12;3.29;81.98
67586;SHT31;55785;47.946;20.540;2022-12-07T02:13:39;3.30;81.93
67586;SHT31;55785;47.946;20.540;2022-12-07T02:16:11;3.42;81.46
67586;SHT31;55785;47.946;20.540;2022-12-07T02:19:46;3.50;81.38
67586;SHT31;55785;47.946;20.540;2022-12-07T02:21:46;3.60;80.96
67586;SHT31;55785;47.946;20.540;2022-12-07T02:24:24;3.57;80.98
67586;SHT31;55785;47.946;20.540;2022-12-07T02:30:06;3.63;80.76
67586;SHT31;55785;47.946;20.540;2022-12-07T02:32:43;3.69;80.61
67586;SHT31;55785;47.946;20.540;2022-12-07T02:35:15;3.73;80.36
67586;SHT31;55785;47.946;20.540;2022-12-07T02:37:51;3.78;80.10
67586;SHT31;55785;47.946;20.540;2022-12-07T02:43:08;3.84;79.68
67586;SHT31;55785;47.946;20.540;2022-12-07T02:45:38;3.87;79.74
67586;SHT31;55785;47.946;20.540;2022-12-07T02:48:07;3.86;79.55
67586;SHT31;55785;47.946;20.540;2022-12-07T02:50:33;3.86;79.65
67586;SHT31;55785;47.946;20.540;2022-12-07T02:52:59;3.93;79.51
67586;SHT31;55785;47.946;20.540;2022-12-07T02:55:45;3.90;79.50
67586;SHT31;55785;47.946;20.540;2022-12-07T02:58:23;3.97;79.06
67586;SHT31;55785;47.946;20.540;2022-12-07T03:01:09;4.02;78.87
67586;SHT31;55785;47.946;20.540;2022-12-07T03:03:37;3.95;79.22
67586;SHT31;55785;47.946;20.540;2022-12-07T03:08:42;3.86;79.48
67586;SHT31;55785;47.946;20.540;2022-12-07T03:11:15;4.01;78.98
67586;SHT31;55785;47.946;20.540;2022-12-07T03:14:08;3.97;79.44
67586;SHT31;55785;47.946;20.540;2022-12-07T03:16:58;3.99;79.06
67586;SHT31;55785;47.946;20.540;2022-12-07T03:19:26;3.97;79.52
67586;SHT31;55785;47.946;20.540;2022-12-07T03:21:59;3.87;79.66
67586;SHT31;55785;47.946;20.540;2022-12-07T03:24:28;3.93;79.02
67586;SHT31;55785;47.946;20.540;2022-12-07T03:27:01;4.11;77.96
67586;SHT31;55785;47.946;20.540;2022-12-07T03:29:33;4.11;78.10
67586;SHT31;55785;47.946;20.540;2022-12-07T03:32:04;4.18;78.04
67586;SHT31;55785;47.946;20.540;2022-12-07T03:34:35;4.24;78.20
67586;SHT31;55785;47.946;20.540;2022-12-07T03:37:07;4.14;78.73
67586;SHT31;55785;47.946;20.540;2022-12-07T03:39:38;4.01;79.07
67586;SHT31;55785;47.946;20.540;2022-12-07T03:42:05;3.98;79.13
67586;SHT31;55785;47.946;20.540;2022-12-07T03:44:33;3.95;79.64
67586;SHT31;55785;47.946;20.540;2022-12-07T03:47:07;4.07;78.74
67586;SHT31;55785;47.946;20.540;2022-12-07T03:49:49;4.18;78.55
67586;SHT31;55785;47.946;20.540;2022-12-07T03:52:28;4.19;78.06
67586;SHT31;55785;47.946;20.540;2022-12-07T03:55:06;4.19;78.00
67586;SHT31;55785;47.946;20.540;2022-12-07T03:57:34;4.19;78.31
67586;SHT31;55785;47.946;20.540;2022-12-07T04:00:01;4.22;78.31
67586;SHT31;55785;47.946;20.540;2022-12-07T04:02:28;4.28;78.19
67586;SHT31;55785;47.946;20.540;2022-12-07T04:04:55;4.25;78.31
67586;SHT31;55785;47.946;20.540;2022-12-07T04:07:20;4.25;78.50
67586;SHT31;55785;47.946;20.540;2022-12-07T04:09:46;4.24;78.72
67586;SHT31;55785;47.946;20.540;2022-12-07T04:12:11;4.29;78.82
67586;SHT31;55785;47.946;20.540;2022-12-07T04:14:36;4.24;78.56
67586;SHT31;55785;47.946;20.540;2022-12-07T04:17:02;4.26;78.89
67586;SHT31;55785;47.946;20.540;2022-12-07T04:19:30;4.28;79.64
67586;SHT31;55785;47.946;20.540;2022-12-07T04:21:57;3.81;80.53
67586;SHT31;55785;47.946;20.540;2022-12-07T04:24:23;3.43;81.84
67586;SHT31;55785;47.946;20.540;2022-12-07T04:26:48;2.85;83.09
67586;SHT31;55785;47.946;20.540;2022-12-07T04:29:14;2.73;84.09
67586;SHT31;55785;47.946;20.540;2022-12-07T04:31:40;2.62;84.35
67586;SHT31;55785;47.946;20.540;2022-12-07T04:34:06;2.57;84.54
67586;SHT31;55785;47.946;20.540;2022-12-07T04:36:32;2.58;85.08
67586;SHT31;55785;47.946;20.540;2022-12-07T04:38:58;2.60;84.94
67586;SHT31;55785;47.946;20.540;2022-12-07T04:41:24;2.51;85.03
67586;SHT31;55785;47.946;20.540;2022-12-07T04:43:49;2.51;85.02
67586;SHT31;55785;47.946;20.540;2022-12-07T04:46:15;2.58;84.87
67586;SHT31;55785;47.946;20.540;2022-12-07T04:48:40;2.53;84.88
67586;SHT31;55785;47.946;20.540;2022-12-07T04:51:05;2.53;85.53
67586;SHT31;55785;47.946;20.540;2022-12-07T04:53:30;2.60;85.40
67586;SHT31;55785;47.946;20.540;2022-12-07T04:55:56;2.70;84.79
67586;SHT31;55785;47.946;20.540;2022-12-07T04:58:21;2.71;84.78
67586;SHT31;55785;47.946;20.540;2022-12-07T05:00:46;2.77;84.69
67586;SHT31;55785;47.946;20.540;2022-12-07T05:03:12;2.70;84.85
67586;SHT31;55785;47.946;20.540;2022-12-07T05:05:40;2.83;84.63
67586;SHT31;55785;47.946;20.540;2022-12-07T05:08:06;2.77;84.70
67586;SHT31;55785;47.946;20.540;2022-12-07T05:10:31;2.83;84.37
67586;SHT31;55785;47.946;20.540;2022-12-07T05:12:56;2.81;84.37
67586;SHT31;55785;47.946;20.540;2022-12-07T05:15:22;2.73;84.58
67586;SHT31;55785;47.946;20.540;2022-12-07T05:17:47;2.64;84.87
67586;SHT31;55785;47.946;20.540;2022-12-07T05:20:12;2.67;85.01
67586;SHT31;55785;47.946;20.540;2022-12-07T05:22:37;2.78;84.97
67586;SHT31;55785;47.946;20.540;2022-12-07T05:25:03;2.83;84.74
67586;SHT31;55785;47.946;20.540;2022-12-07T05:27:28;2.91;84.47
67586;SHT31;55785;47.946;20.540;2022-12-07T05:29:54;3.08;84.20
67586;SHT31;55785;47.946;20.540;2022-12-07T05:32:19;2.99;84.33
67586;SHT31;55785;47.946;20.540;2022-12-07T05:34:44;2.95;84.32
67586;SHT31;55785;47.946;20.540;2022-12-07T05:37:10;2.85;84.68
67586;SHT31;55785;47.946;20.540;2022-12-07T05:39:35;2.81;84.74
67586;SHT31;55785;47.946;20.540;2022-12-07T05:42:00;2.78;84.78
67586;SHT31;55785;47.946;20.540;2022-12-07T05:44:26;2.76;84.80
67586;SHT31;55785;47.946;20.540;2022-12-07T05:46:51;2.83;84.77
67586;SHT31;55785;47.946;20.540;2022-12-07T05:49:17;2.80;85.32
67586;SHT31;55785;47.946;20.540;2022-12-07T05:51:42;2.74;85.26
67586;SHT31;55785;47.946;20.540;2022-12-07T05:54:07;2.77;85.14
67586;SHT31;55785;47.946;20.540;2022-12-07T05:56:33;2.76;85.19
67586;SHT31;55785;47.946;20.540;2022-12-07T05:58:58;2.83;85.24
67586;SHT31;55785;47.946;20.540;2022-12-07T06:01:23;2.83;85.05
67586;SHT31;55785;47.946;20.540;2022-12-07T06:03:49;2.88;84.99
67586;SHT31;55785;47.946;20.540;2022-12-07T06:06:14;2.88;84.79
67586;SHT31;55785;47.946;20.540;2022-12-07T06:08:39;2.87;85.02
67586;SHT31;55785;47.946;20.540;2022-12-07T06:11:05;2.71;85.27
67586;SHT31;55785;47.946;20.540;2022-12-07T06:13:30;2.58;85.52
67586;SHT31;55785;47.946;20.540;2022-12-07T06:15:55;2.47;86.08
67586;SHT31;55785;47.946;20.540;2022-12-07T06:18:22;2.44;86.26
67586;SHT31;55785;47.946;20.540;2022-12-07T06:20:47;2.49;86.39
67586;SHT31;55785;47.946;20.540;2022-12-07T06:23:13;2.50;86.36
67586;SHT31;55785;47.946;20.540;2022-12-07T06:25:38;2.54;86.38
67586;SHT31;55785;47.946;20.540;2022-12-07T06:28:03;2.56;86.42
67586;SHT31;55785;47.946;20.540;2022-12-07T06:30:29;2.56;86.31
67586;SHT31;55785;47.946;20.540;2022-12-07T06:32:54;2.58;86.27
67586;SHT31;55785;47.946;20.540;2022-12-07T06:35:20;2.54;86.47
67586;SHT31;55785;47.946;20.540;2022-12-07T06:37:45;2.54;86.22
67586;SHT31;55785;47.946;20.540;2022-12-07T06:40:10;2.56;86.22
67586;SHT31;55785;47.946;20.540;2022-12-07T06:42:36;2.56;86.33
67586;SHT31;55785;47.946;20.540;2022-12-07T06:45:01;2.56;86.39
67586;SHT31;55785;47.946;20.540;2022-12-07T06:47:26;2.56;86.22
67586;SHT31;55785;47.946;20.540;2022-12-07T06:49:52;2.60;86.21
67586;SHT31;55785;47.946;20.540;2022-12-07T06:52:17;2.61;86.29
67586;SHT31;55785;47.946;20.540;2022-12-07T06:54:42;2.61;86.17
67586;SHT31;55785;47.946;20.540;2022-12-07T06:57:08;2.61;86.21
67586;SHT31;55785;47.946;20.540;2022-12-07T06:59:33;2.62;86.42
67586;SHT31;55785;47.946;20.540;2022-12-07T07:01:58;2.73;86.23
67586;SHT31;55785;47.946;20.540;2022-12-07T07:04:24;2.76;86.02
67586;SHT31;55785;47.946;20.540;2022-12-07T07:06:49;2.77;86.01
67586;SHT31;55785;47.946;20.540;2022-12-07T07:09:14;2.91;85.98
67586;SHT31;55785;47.946;20.540;2022-12-07T07:14:05;3.04;85.32
67586;SHT31;55785;47.946;20.540;2022-12-07T07:18:55;3.15;85.23
67586;SHT31;55785;47.946;20.540;2022-12-07T07:21:21;3.13;85.35
67586;SHT31;55785;47.946;20.540;2022-12-07T07:26:11;3.23;85.21
67586;SHT31;55785;47.946;20.540;2022-12-07T07:31:02;3.29;85.22
67586;SHT31;55785;47.946;20.540;2022-12-07T11:18:24;7.71;66.59
67586;SHT31;55785;47.946;20.540;2022-12-07T11:23:40;7.69;66.11
67586;SHT31;55785;47.946;20.540;2022-12-07T11:34:35;8.16;64.87
67586;SHT31;55785;47.946;20.540;2022-12-07T11:37:05;8.53;63.25
67586;SHT31;55785;47.946;20.540;2022-12-07T11:39:37;8.60;62.83
67586;SHT31;55785;47.946;20.540;2022-12-07T11:42:08;8.37;64.65
67586;SHT31;55785;47.946;20.540;2022-12-07T11:44:47;8.44;64.59
67586;SHT31;55785;47.946;20.540;2022-12-07T11:47:38;8.60;63.53
67586;SHT31;55785;47.946;20.540;2022-12-07T11:53:10;8.09;63.75
67586;SHT31;55785;47.946;20.540;2022-12-07T11:58:38;7.88;65.45
67586;SHT31;55785;47.946;20.540;2022-12-07T12:03:47;7.68;65.69
67586;SHT31;55785;47.946;20.540;2022-12-07T12:06:13;7.52;65.07
67586;SHT31;55785;47.946;20.540;2022-12-07T12:08:48;7.20;66.29
67586;SHT31;55785;47.946;20.540;2022-12-07T12:11:27;6.83;67.00
67586;SHT31;55785;47.946;20.540;2022-12-07T12:22:19;6.06;68.79
67586;SHT31;55785;47.946;20.540;2022-12-07T12:24:49;5.90;68.30
67586;SHT31;55785;47.946;20.540;2022-12-07T12:27:31;5.87;68.63
67586;SHT31;55785;47.946;20.540;2022-12-07T12:30:00;5.82;69.49
67586;SHT31;55785;47.946;20.540;2022-12-07T12:35:28;5.87;68.78
67586;SHT31;55785;47.946;20.540;2022-12-07T12:37:54;5.82;68.90
67586;SHT31;55785;47.946;20.540;2022-12-07T12:42:55;5.85;68.08
67586;SHT31;55785;47.946;20.540;2022-12-07T12:45:28;5.83;68.69
67586;SHT31;55785;47.946;20.540;2022-12-07T12:48:01;5.73;69.40
67586;SHT31;55785;47.946;20.540;2022-12-07T12:50:35;5.70;69.79
67586;SHT31;55785;47.946;20.540;2022-12-07T12:58:40;5.62;71.00
67586;SHT31;55785;47.946;20.540;2022-12-07T13:01:40;5.58;71.90
67586;SHT31;55785;47.946;20.540;2022-12-07T13:26:13;6.22;68.24
67586;SHT31;55785;47.946;20.540;2022-12-07T13:28:43;6.10;68.08
67586;SHT31;55785;47.946;20.540;2022-12-07T13:33:55;6.01;68.33
67586;SHT31;55785;47.946;20.540;2022-12-07T13:36:23;5.93;68.47
67586;SHT31;55785;47.946;20.540;2022-12-07T13:38:59;5.77;68.99
67586;SHT31;55785;47.946;20.540;2022-12-07T13:41:29;5.82;69.63
67586;SHT31;55785;47.946;20.540;2022-12-07T13:44:05;5.79;69.83
67586;SHT31;55785;47.946;20.540;2022-12-07T13:46:35;5.85;70.34
67586;SHT31;55785;47.946;20.540;2022-12-07T13:49:02;5.76;69.09
67586;SHT31;55785;47.946;20.540;2022-12-07T13:51:40;5.65;69.94
67586;SHT31;55785;47.946;20.540;2022-12-07T13:54:10;5.66;69.69
67586;SHT31;55785;47.946;20.540;2022-12-07T13:56:37;5.70;69.47
67586;SHT31;55785;47.946;20.540;2022-12-07T13:59:03;5.72;69.26
67586;SHT31;55785;47.946;20.540;2022-12-07T14:01:33;5.67;69.58
67586;SHT31;55785;47.946;20.540;2022-12-07T14:04:30;5.56;70.61
67586;SHT31;55785;47.946;20.540;2022-12-07T14:06:56;5.49;71.12
67586;SHT31;55785;47.946;20.540;2022-12-07T14:09:24;5.56;69.57
67586;SHT31;55785;47.946;20.540;2022-12-07T14:11:52;5.59;69.77
67586;SHT31;55785;47.946;20.540;2022-12-07T14:14:21;5.48;70.26
67586;SHT31;55785;47.946;20.540;2022-12-07T14:17:11;5.51;69.87
67586;SHT31;55785;47.946;20.540;2022-12-07T14:19:45;5.45;68.96
67586;SHT31;55785;47.946;20.540;2022-12-07T14:25:00;5.42;68.55
67586;SHT31;55785;47.946;20.540;2022-12-07T14:27:31;5.36;68.87
67586;SHT31;55785;47.946;20.540;2022-12-07T14:29:58;5.32;69.05
67586;SHT31;55785;47.946;20.540;2022-12-07T14:32:28;5.31;68.43
67586;SHT31;55785;47.946;20.540;2022-12-07T14:35:10;5.27;68.59
67586;SHT31;55785;47.946;20.540;2022-12-07T14:37:37;5.23;68.76
67586;SHT31;55785;47.946;20.540;2022-12-07T14:40:03;5.21;69.39
67586;SHT31;55785;47.946;20.540;2022-12-07T14:42:29;5.04;70.01
67586;SHT31;55785;47.946;20.540;2022-12-07T14:44:56;4.95;70.31
67586;SHT31;55785;47.946;20.540;2022-12-07T14:47:22;4.95;70.34
67586;SHT31;55785;47.946;20.540;2022-12-07T14:49:47;4.91;70.39
67586;SHT31;55785;47.946;20.540;2022-12-07T14:52:21;4.84;70.83
67586;SHT31;55785;47.946;20.540;2022-12-07T14:54:46;4.84;71.04
67586;SHT31;55785;47.946;20.540;2022-12-07T14:57:12;4.69;71.85
67586;SHT31;55785;47.946;20.540;2022-12-07T14:59:38;4.66;71.98
67586;SHT31;55785;47.946;20.540;2022-12-07T15:02:04;4.55;72.43
67586;SHT31;55785;47.946;20.540;2022-12-07T15:04:29;4.53;72.01
67586;SHT31;55785;47.946;20.540;2022-12-07T15:07:00;4.48;72.16
67586;SHT31;55785;47.946;20.540;2022-12-07T15:09:26;4.48;72.14
67586;SHT31;55785;47.946;20.540;2022-12-07T15:11:51;4.41;71.78
67586;SHT31;55785;47.946;20.540;2022-12-07T15:14:16;4.42;71.64
67586;SHT31;55785;47.946;20.540;2022-12-07T15:16:43;4.39;71.39
67586;SHT31;55785;47.946;20.540;2022-12-07T15:19:20;4.34;71.67
67586;SHT31;55785;47.946;20.540;2022-12-07T15:21:45;4.22;72.19
67586;SHT31;55785;47.946;20.540;2022-12-07T15:24:12;4.04;72.84
67586;SHT31;55785;47.946;20.540;2022-12-07T15:26:39;3.78;73.72
67586;SHT31;55785;47.946;20.540;2022-12-07T15:29:05;3.76;74.04
67586;SHT31;55785;47.946;20.540;2022-12-07T15:31:31;3.60;74.68
67586;SHT31;55785;47.946;20.540;2022-12-07T15:33:56;3.63;74.48
67586;SHT31;55785;47.946;20.540;2022-12-07T15:36:24;3.55;74.57
67586;SHT31;55785;47.946;20.540;2022-12-07T15:38:53;3.59;74.66
67586;SHT31;55785;47.946;20.540;2022-12-07T15:41:18;3.44;75.16
67586;SHT31;55785;47.946;20.540;2022-12-07T15:43:44;3.46;75.39
67586;SHT31;55785;47.946;20.540;2022-12-07T15:46:09;3.43;75.72
67586;SHT31;55785;47.946;20.540;2022-12-07T15:48:34;3.46;75.86
67586;SHT31;55785;47.946;20.540;2022-12-07T15:51:04;3.50;75.59
67586;SHT31;55785;47.946;20.540;2022-12-07T15:53:30;3.50;75.38
67586;SHT31;55785;47.946;20.540;2022-12-07T15:55:55;3.55;75.32
67586;SHT31;55785;47.946;20.540;2022-12-07T15:58:20;3.59;75.21
67586;SHT31;55785;47.946;20.540;2022-12-07T16:00:46;3.55;75.33
67586;SHT31;55785;47.946;20.540;2022-12-07T16:03:11;3.52;75.40
67586;SHT31;55785;47.946;20.540;2022-12-07T16:05:36;3.52;75.47
67586;SHT31;55785;47.946;20.540;2022-12-07T16:08:02;3.49;75.53
67586;SHT31;55785;47.946;20.540;2022-12-07T16:10:27;3.47;75.77
67586;SHT31;55785;47.946;20.540;2022-12-07T16:12:52;3.42;76.05
67586;SHT31;55785;47.946;20.540;2022-12-07T16:15:18;3.39;76.12
67586;SHT31;55785;47.946;20.540;2022-12-07T16:17:43;3.43;76.19
67586;SHT31;55785;47.946;20.540;2022-12-07T16:20:09;3.33;76.37
67586;SHT31;55785;47.946;20.540;2022-12-07T16:22:35;3.36;76.38
67586;SHT31;55785;47.946;20.540;2022-12-07T16:25:00;3.29;76.55
67586;SHT31;55785;47.946;20.540;2022-12-07T16:27:26;3.25;76.78
67586;SHT31;55785;47.946;20.540;2022-12-07T16:29:51;3.28;76.79
67586;SHT31;55785;47.946;20.540;2022-12-07T16:32:16;3.25;76.86
67586;SHT31;55785;47.946;20.540;2022-12-07T16:34:42;3.26;76.75
67586;SHT31;55785;47.946;20.540;2022-12-07T16:37:07;3.23;76.93
67586;SHT31;55785;47.946;20.540;2022-12-07T16:39:33;3.25;77.04
67586;SHT31;55785;47.946;20.540;2022-12-07T16:41:58;3.18;77.42
67586;SHT31;55785;47.946;20.540;2022-12-07T16:44:24;3.02;77.86
67586;SHT31;55785;47.946;20.540;2022-12-07T16:46:49;2.97;78.16
67586;SHT31;55785;47.946;20.540;2022-12-07T16:49:15;2.84;78.48
67586;SHT31;55785;47.946;20.540;2022-12-07T16:51:41;2.83;78.80
67586;SHT31;55785;47.946;20.540;2022-12-07T16:54:09;2.90;78.45
67586;SHT31;55785;47.946;20.540;2022-12-07T16:56:35;2.95;78.32
67586;SHT31;55785;47.946;20.540;2022-12-07T16:59:00;2.99;78.24
67586;SHT31;55785;47.946;20.540;2022-12-07T17:01:26;2.99;78.30
67586;SHT31;55785;47.946;20.540;2022-12-07T17:03:51;2.97;78.60
67586;SHT31;55785;47.946;20.540;2022-12-07T17:06:24;2.95;78.48
67586;SHT31;55785;47.946;20.540;2022-12-07T17:08:50;2.92;78.60
67586;SHT31;55785;47.946;20.540;2022-12-07T17:11:29;2.85;78.58
67586;SHT31;55785;47.946;20.540;2022-12-07T17:13:55;2.81;78.88
67586;SHT31;55785;47.946;20.540;2022-12-07T17:16:20;2.77;79.03
67586;SHT31;55785;47.946;20.540;2022-12-07T17:18:45;2.74;79.09
67586;SHT31;55785;47.946;20.540;2022-12-07T17:21:11;2.78;79.11
67586;SHT31;55785;47.946;20.540;2022-12-07T17:23:36;2.84;79.08
67586;SHT31;55785;47.946;20.540;2022-12-07T17:26:08;2.87;78.98
67586;SHT31;55785;47.946;20.540;2022-12-07T17:28:35;2.85;78.85
67586;SHT31;55785;47.946;20.540;2022-12-07T17:31:00;2.78;79.05
67586;SHT31;55785;47.946;20.540;2022-12-07T17:33:26;2.71;79.18
67586;SHT31;55785;47.946;20.540;2022-12-07T17:35:51;2.71;79.15
67586;SHT31;55785;47.946;20.540;2022-12-07T17:38:16;2.70;79.21
67586;SHT31;55785;47.946;20.540;2022-12-07T17:40:42;2.64;79.29
67586;SHT31;55785;47.946;20.540;2022-12-07T17:43:07;2.67;79.39
67586;SHT31;55785;47.946;20.540;2022-12-07T17:45:32;2.76;79.23
67586;SHT31;55785;47.946;20.540;2022-12-07T17:47:58;2.68;79.47
67586;SHT31;55785;47.946;20.540;2022-12-07T17:50:23;2.73;79.64
67586;SHT31;55785;47.946;20.540;2022-12-07T17:52:48;2.74;79.45
67586;SHT31;55785;47.946;20.540;2022-12-07T17:55:14;2.70;79.61
67586;SHT31;55785;47.946;20.540;2022-12-07T17:57:39;2.74;79.44
67586;SHT31;55785;47.946;20.540;2022-12-07T18:00:05;2.70;79.50
67586;SHT31;55785;47.946;20.540;2022-12-07T18:02:31;2.64;79.22
67586;SHT31;55785;47.946;20.540;2022-12-07T18:04:56;2.40;78.63
67586;SHT31;55785;47.946;20.540;2022-12-07T18:07:22;2.36;78.73
67586;SHT31;55785;47.946;20.540;2022-12-07T18:09:47;2.34;79.44
67586;SHT31;55785;47.946;20.540;2022-12-07T18:12:12;2.19;79.64
67586;SHT31;55785;47.946;20.540;2022-12-07T18:14:38;1.77;79.76
67586;SHT31;55785;47.946;20.540;2022-12-07T18:17:03;1.81;78.55
67586;SHT31;55785;47.946;20.540;2022-12-07T18:19:28;1.60;79.78
67586;SHT31;55785;47.946;20.540;2022-12-07T18:21:53;1.47;80.45
67586;SHT31;55785;47.946;20.540;2022-12-07T18:24:19;1.37;81.23
67586;SHT31;55785;47.946;20.540;2022-12-07T18:26:45;1.33;81.55
67586;SHT31;55785;47.946;20.540;2022-12-07T18:29:13;1.17;81.38
67586;SHT31;55785;47.946;20.540;2022-12-07T18:31:39;1.13;81.65
67586;SHT31;55785;47.946;20.540;2022-12-07T18:34:06;1.06;82.20
67586;SHT31;55785;47.946;20.540;2022-12-07T18:36:32;1.12;82.13
67586;SHT31;55785;47.946;20.540;2022-12-07T18:38:57;1.15;81.21
67586;SHT31;55785;47.946;20.540;2022-12-07T18:41:22;0.91;81.63
67586;SHT31;55785;47.946;20.540;2022-12-07T18:43:48;0.91;82.27
67586;SHT31;55785;47.946;20.540;2022-12-07T18:46:19;0.86;82.82
67586;SHT31;55785;47.946;20.540;2022-12-07T18:48:45;0.86;82.37
67586;SHT31;55785;47.946;20.540;2022-12-07T18:51:13;0.86;82.33
67586;SHT31;55785;47.946;20.540;2022-12-07T18:53:39;0.75;82.74
67586;SHT31;55785;47.946;20.540;2022-12-07T18:58:31;0.65;82.24
67586;SHT31;55785;47.946;20.540;2022-12-07T19:00:57;0.55;82.31
67586;SHT31;55785;47.946;20.540;2022-12-07T19:03:23;0.51;82.56
67586;SHT31;55785;47.946;20.540;2022-12-07T19:05:48;0.45;83.38
67586;SHT31;55785;47.946;20.540;2022-12-07T19:08:14;0.21;82.69
67586;SHT31;55785;47.946;20.540;2022-12-07T19:10:39;0.20;82.77
67586;SHT31;55785;47.946;20.540;2022-12-07T19:13:05;0.18;82.92
67586;SHT31;55785;47.946;20.540;2022-12-07T19:15:31;0.06;83.07
67586;SHT31;55785;47.946;20.540;2022-12-07T19:17:56;0.10;83.60
67586;SHT31;55785;47.946;20.540;2022-12-07T19:20:22;-0.03;84.09
67586;SHT31;55785;47.946;20.540;2022-12-07T19:22:47;-0.11;83.40
67586;SHT31;55785;47.946;20.540;2022-12-07T19:25:12;-0.17;83.50
67586;SHT31;55785;47.946;20.540;2022-12-07T19:27:38;-0.14;84.02
67586;SHT31;55785;47.946;20.540;2022-12-07T19:30:05;-0.17;84.21
67586;SHT31;55785;47.946;20.540;2022-12-07T19:32:30;-0.28;83.72
67586;SHT31;55785;47.946;20.540;2022-12-07T19:34:56;-0.35;83.71
67586;SHT31;55785;47.946;20.540;2022-12-07T19:37:21;-0.39;83.74
67586;SHT31;55785;47.946;20.540;2022-12-07T19:39:47;-0.41;84.26
67586;SHT31;55785;47.946;20.540;2022-12-07T19:42:13;-0.39;84.13
67586;SHT31;55785;47.946;20.540;2022-12-07T19:44:38;-0.48;84.40
67586;SHT31;55785;47.946;20.540;2022-12-07T19:47:04;-0.45;84.46
67586;SHT31;55785;47.946;20.540;2022-12-07T19:49:30;-0.43;84.59
67586;SHT31;55785;47.946;20.540;2022-12-07T19:51:59;-0.51;84.54
67586;SHT31;55785;47.946;20.540;2022-12-07T19:54:27;-0.66;84.83
67586;SHT31;55785;47.946;20.540;2022-12-07T19:56:53;-0.82;84.11
67586;SHT31;55785;47.946;20.540;2022-12-07T19:59:22;-0.80;84.18
67586;SHT31;55785;47.946;20.540;2022-12-07T20:01:48;-0.89;84.45
67586;SHT31;55785;47.946;20.540;2022-12-07T20:04:18;-0.93;84.64
67586;SHT31;55785;47.946;20.540;2022-12-07T20:06:45;-0.99;84.70
67586;SHT31;55785;47.946;20.540;2022-12-07T20:09:11;-0.86;84.99
67586;SHT31;55785;47.946;20.540;2022-12-07T20:11:37;-0.87;85.09
67586;SHT31;55785;47.946;20.540;2022-12-07T20:14:05;-0.97;84.38
67586;SHT31;55785;47.946;20.540;2022-12-07T20:16:31;-1.03;84.39
67586;SHT31;55785;47.946;20.540;2022-12-07T20:18:58;-1.03;85.00
67586;SHT31;55785;47.946;20.540;2022-12-07T20:21:24;-1.01;85.03
67586;SHT31;55785;47.946;20.540;2022-12-07T20:23:49;-1.03;85.25
67586;SHT31;55785;47.946;20.540;2022-12-07T20:26:14;-1.05;85.22
67586;SHT31;55785;47.946;20.540;2022-12-07T20:28:40;-1.08;85.37
67586;SHT31;55785;47.946;20.540;2022-12-07T20:31:06;-0.99;85.38
67586;SHT31;55785;47.946;20.540;2022-12-07T20:33:31;-1.07;84.65
67586;SHT31;55785;47.946;20.540;2022-12-07T20:36:01;-1.32;85.18
67586;SHT31;55785;47.946;20.540;2022-12-07T20:38:28;-1.49;84.81
67586;SHT31;55785;47.946;20.540;2022-12-07T20:41:01;-1.44;85.05
67586;SHT31;55785;47.946;20.540;2022-12-07T20:43:27;-1.32;85.02
67586;SHT31;55785;47.946;20.540;2022-12-07T20:45:53;-1.30;85.14